This is the latest recevied weather packets stored in our database for station/object F4WDE-10. If no packets are shown the sender has not sent any weather packets the latest 10 day(s).
| Time | Temp. | Humidity | Pressure | Rain* | Wind** | Luminosity | Snow |
|---|---|---|---|---|---|---|---|
| 1777894773 | 17.78° C | 83% | 962 hPa | - | - | - | - |
| 1777893871 | 17.22° C | 88% | 962 hPa | - | - | - | - |
| 1777892970 | 17.22° C | 84% | 962 hPa | - | - | - | - |
| 1777892069 | 18.33° C | 74% | 962 hPa | - | - | - | - |
| 1777891168 | 20° C | 66% | 962 hPa | - | - | - | - |
| 1777890267 | 20.56° C | 59% | 963 hPa | - | - | - | - |
| 1777889366 | 21.67° C | 43% | 962 hPa | - | - | - | - |
| 1777888465 | 21.67° C | 45% | 963 hPa | - | - | - | - |
| 1777887563 | 23.33° C | 41% | 962 hPa | - | - | - | - |
| 1777886662 | 22.78° C | 43% | 962 hPa | - | - | - | - |
| 1777885761 | 21.67° C | 42% | 962 hPa | - | - | - | - |
| 1777884860 | 21.67° C | 43% | 962 hPa | - | - | - | - |
| 1777883959 | 20° C | 48% | 962 hPa | - | - | - | - |
| 1777883058 | 17.78° C | 55% | 963 hPa | - | - | - | - |
| 1777882156 | 16.11° C | 65% | 963 hPa | - | - | - | - |
| 1777881255 | 16.11° C | 66% | 963 hPa | - | - | - | - |
| 1777880354 | 16.11° C | 64% | 963 hPa | - | - | - | - |
| 1777879453 | 16.11° C | 64% | 963 hPa | - | - | - | - |
| 1777878552 | 16.11° C | 69% | 963 hPa | - | - | - | - |
| 1777877651 | 15.56° C | 71% | 963 hPa | - | - | - | - |
| 1777876750 | 15.56° C | 67% | 963 hPa | - | - | - | - |
| 1777875849 | 16.11° C | 65% | 962 hPa | - | - | - | - |
| 1777874948 | 16.11° C | 65% | 962 hPa | - | - | - | - |
| 1777874047 | 16.11° C | 62% | 962 hPa | - | - | - | - |
| 1777873146 | 15.56° C | 66% | 962 hPa | - | - | - | - |
* Rain since midnight (hover to see other rain measurements)
** Current wind speed in m/s (hover to see current wind gust speed)